sensor_id;sensor_type;location;lat;lon;timestamp;pressure;altitude;pressure_sealevel;temperature
68012;BMP180;54794;48.348;7.878;2023-04-15T00:01:37;98103.00;;;9.60
68012;BMP180;54794;48.348;7.878;2023-04-15T00:04:04;98100.00;;;9.50
68012;BMP180;54794;48.348;7.878;2023-04-15T00:06:31;98097.00;;;8.90
68012;BMP180;54794;48.348;7.878;2023-04-15T00:08:58;98103.00;;;9.00
68012;BMP180;54794;48.348;7.878;2023-04-15T00:11:26;98096.00;;;9.00
68012;BMP180;54794;48.348;7.878;2023-04-15T00:13:52;98099.00;;;9.30
68012;BMP180;54794;48.348;7.878;2023-04-15T00:16:20;98108.00;;;9.30
68012;BMP180;54794;48.348;7.878;2023-04-15T00:18:47;98100.00;;;9.20
68012;BMP180;54794;48.348;7.878;2023-04-15T00:21:13;98102.00;;;9.30
68012;BMP180;54794;48.348;7.878;2023-04-15T00:23:40;98092.00;;;9.10
68012;BMP180;54794;48.348;7.878;2023-04-15T00:26:07;98101.00;;;9.10
68012;BMP180;54794;48.348;7.878;2023-04-15T00:28:34;98098.00;;;9.10
68012;BMP180;54794;48.348;7.878;2023-04-15T00:31:01;98094.00;;;9.10
68012;BMP180;54794;48.348;7.878;2023-04-15T00:33:28;98099.00;;;9.00
68012;BMP180;54794;48.348;7.878;2023-04-15T00:35:55;98098.00;;;8.50
68012;BMP180;54794;48.348;7.878;2023-04-15T00:38:21;98102.00;;;8.80
68012;BMP180;54794;48.348;7.878;2023-04-15T00:40:49;98094.00;;;8.60
68012;BMP180;54794;48.348;7.878;2023-04-15T00:43:16;98101.00;;;8.10
68012;BMP180;54794;48.348;7.878;2023-04-15T00:45:43;98105.00;;;7.50
68012;BMP180;54794;48.348;7.878;2023-04-15T00:48:11;98103.00;;;7.90
68012;BMP180;54794;48.348;7.878;2023-04-15T00:50:38;98099.00;;;8.10
68012;BMP180;54794;48.348;7.878;2023-04-15T00:53:05;98099.00;;;8.30
68012;BMP180;54794;48.348;7.878;2023-04-15T00:55:32;98101.00;;;8.50
68012;BMP180;54794;48.348;7.878;2023-04-15T00:57:58;98101.00;;;8.40
68012;BMP180;54794;48.348;7.878;2023-04-15T01:00:26;98104.00;;;8.30
68012;BMP180;54794;48.348;7.878;2023-04-15T01:02:53;98097.00;;;8.20
68012;BMP180;54794;48.348;7.878;2023-04-15T01:05:20;98108.00;;;7.40
68012;BMP180;54794;48.348;7.878;2023-04-15T01:07:47;98106.00;;;7.90
68012;BMP180;54794;48.348;7.878;2023-04-15T01:10:14;98102.00;;;8.10
68012;BMP180;54794;48.348;7.878;2023-04-15T01:12:41;98090.00;;;8.40
68012;BMP180;54794;48.348;7.878;2023-04-15T01:15:09;98100.00;;;8.10
68012;BMP180;54794;48.348;7.878;2023-04-15T01:17:37;98108.00;;;8.40
68012;BMP180;54794;48.348;7.878;2023-04-15T01:20:06;98095.00;;;8.40
68012;BMP180;54794;48.348;7.878;2023-04-15T01:22:35;98104.00;;;8.50
68012;BMP180;54794;48.348;7.878;2023-04-15T01:25:31;98100.00;;;8.30
68012;BMP180;54794;48.348;7.878;2023-04-15T01:27:59;98100.00;;;8.50
68012;BMP180;54794;48.348;7.878;2023-04-15T01:30:26;98099.00;;;8.50
68012;BMP180;54794;48.348;7.878;2023-04-15T01:32:53;98093.00;;;8.60
68012;BMP180;54794;48.348;7.878;2023-04-15T01:35:20;98101.00;;;8.50
68012;BMP180;54794;48.348;7.878;2023-04-15T01:37:48;98091.00;;;8.50
68012;BMP180;54794;48.348;7.878;2023-04-15T01:40:15;98091.00;;;8.60
68012;BMP180;54794;48.348;7.878;2023-04-15T01:42:42;98094.00;;;8.30
68012;BMP180;54794;48.348;7.878;2023-04-15T01:45:09;98090.00;;;7.90
68012;BMP180;54794;48.348;7.878;2023-04-15T01:47:36;98098.00;;;7.40
68012;BMP180;54794;48.348;7.878;2023-04-15T01:50:03;98090.00;;;7.30
68012;BMP180;54794;48.348;7.878;2023-04-15T01:52:31;98102.00;;;7.20
68012;BMP180;54794;48.348;7.878;2023-04-15T01:54:58;98096.00;;;7.50
68012;BMP180;54794;48.348;7.878;2023-04-15T01:57:24;98095.00;;;7.90
68012;BMP180;54794;48.348;7.878;2023-04-15T01:59:51;98097.00;;;7.70
68012;BMP180;54794;48.348;7.878;2023-04-15T02:02:18;98094.00;;;7.90
68012;BMP180;54794;48.348;7.878;2023-04-15T02:04:46;98096.00;;;7.50
68012;BMP180;54794;48.348;7.878;2023-04-15T02:07:12;98100.00;;;7.90
68012;BMP180;54794;48.348;7.878;2023-04-15T02:09:40;98103.00;;;7.90
68012;BMP180;54794;48.348;7.878;2023-04-15T02:12:07;98096.00;;;7.90
68012;BMP180;54794;48.348;7.878;2023-04-15T02:14:34;98093.00;;;8.10
68012;BMP180;54794;48.348;7.878;2023-04-15T02:17:01;98093.00;;;8.10
68012;BMP180;54794;48.348;7.878;2023-04-15T02:19:36;98099.00;;;8.00
68012;BMP180;54794;48.348;7.878;2023-04-15T02:22:03;98092.00;;;8.10
68012;BMP180;54794;48.348;7.878;2023-04-15T02:24:30;98099.00;;;8.10
68012;BMP180;54794;48.348;7.878;2023-04-15T02:26:57;98099.00;;;7.90
68012;BMP180;54794;48.348;7.878;2023-04-15T02:29:24;98095.00;;;8.00
68012;BMP180;54794;48.348;7.878;2023-04-15T02:31:51;98094.00;;;7.90
68012;BMP180;54794;48.348;7.878;2023-04-15T02:34:18;98095.00;;;7.80
68012;BMP180;54794;48.348;7.878;2023-04-15T02:36:45;98097.00;;;8.10
68012;BMP180;54794;48.348;7.878;2023-04-15T02:39:14;98100.00;;;7.90
68012;BMP180;54794;48.348;7.878;2023-04-15T02:41:42;98101.00;;;8.00
68012;BMP180;54794;48.348;7.878;2023-04-15T02:44:13;98102.00;;;7.90
68012;BMP180;54794;48.348;7.878;2023-04-15T02:46:40;98098.00;;;8.10
68012;BMP180;54794;48.348;7.878;2023-04-15T02:49:06;98099.00;;;7.90
68012;BMP180;54794;48.348;7.878;2023-04-15T02:51:34;98096.00;;;8.10
68012;BMP180;54794;48.348;7.878;2023-04-15T02:54:01;98092.00;;;7.70
68012;BMP180;54794;48.348;7.878;2023-04-15T02:56:27;98109.00;;;7.80
68012;BMP180;54794;48.348;7.878;2023-04-15T02:58:56;98100.00;;;7.90
68012;BMP180;54794;48.348;7.878;2023-04-15T03:01:23;98103.00;;;7.90
68012;BMP180;54794;48.348;7.878;2023-04-15T03:03:50;98109.00;;;7.50
68012;BMP180;54794;48.348;7.878;2023-04-15T03:06:17;98105.00;;;7.50
68012;BMP180;54794;48.348;7.878;2023-04-15T03:08:44;98111.00;;;7.60
68012;BMP180;54794;48.348;7.878;2023-04-15T03:11:11;98113.00;;;7.50
68012;BMP180;54794;48.348;7.878;2023-04-15T03:13:38;98120.00;;;7.50
68012;BMP180;54794;48.348;7.878;2023-04-15T03:16:07;98115.00;;;7.90
68012;BMP180;54794;48.348;7.878;2023-04-15T03:18:34;98115.00;;;8.00
68012;BMP180;54794;48.348;7.878;2023-04-15T03:21:01;98121.00;;;8.00
68012;BMP180;54794;48.348;7.878;2023-04-15T03:23:30;98115.00;;;7.70
68012;BMP180;54794;48.348;7.878;2023-04-15T03:26:01;98112.00;;;7.80
68012;BMP180;54794;48.348;7.878;2023-04-15T03:28:29;98108.00;;;7.90
68012;BMP180;54794;48.348;7.878;2023-04-15T03:30:56;98107.00;;;7.90
68012;BMP180;54794;48.348;7.878;2023-04-15T03:33:23;98098.00;;;7.90
68012;BMP180;54794;48.348;7.878;2023-04-15T03:35:51;98098.00;;;7.90
68012;BMP180;54794;48.348;7.878;2023-04-15T03:38:19;98101.00;;;7.90
68012;BMP180;54794;48.348;7.878;2023-04-15T03:40:46;98103.00;;;8.00
68012;BMP180;54794;48.348;7.878;2023-04-15T03:43:13;98098.00;;;8.00
68012;BMP180;54794;48.348;7.878;2023-04-15T03:45:40;98095.00;;;8.10
68012;BMP180;54794;48.348;7.878;2023-04-15T03:48:07;98098.00;;;7.80
68012;BMP180;54794;48.348;7.878;2023-04-15T03:50:44;98097.00;;;7.90
68012;BMP180;54794;48.348;7.878;2023-04-15T03:53:11;98098.00;;;7.70
68012;BMP180;54794;48.348;7.878;2023-04-15T03:55:39;98089.00;;;7.90
68012;BMP180;54794;48.348;7.878;2023-04-15T03:58:06;98084.00;;;8.10
68012;BMP180;54794;48.348;7.878;2023-04-15T04:00:33;98083.00;;;8.10
68012;BMP180;54794;48.348;7.878;2023-04-15T04:02:59;98082.00;;;8.00
68012;BMP180;54794;48.348;7.878;2023-04-15T04:05:27;98086.00;;;7.70
68012;BMP180;54794;48.348;7.878;2023-04-15T04:07:53;98088.00;;;7.80
68012;BMP180;54794;48.348;7.878;2023-04-15T04:10:20;98093.00;;;7.70
68012;BMP180;54794;48.348;7.878;2023-04-15T04:12:47;98099.00;;;7.80
68012;BMP180;54794;48.348;7.878;2023-04-15T04:15:14;98097.00;;;7.70
68012;BMP180;54794;48.348;7.878;2023-04-15T04:17:41;98097.00;;;7.90
68012;BMP180;54794;48.348;7.878;2023-04-15T04:20:09;98100.00;;;7.70
68012;BMP180;54794;48.348;7.878;2023-04-15T04:22:39;98101.00;;;7.70
68012;BMP180;54794;48.348;7.878;2023-04-15T04:25:07;98102.00;;;7.80
68012;BMP180;54794;48.348;7.878;2023-04-15T04:27:36;98099.00;;;7.80
68012;BMP180;54794;48.348;7.878;2023-04-15T04:30:04;98095.00;;;7.90
68012;BMP180;54794;48.348;7.878;2023-04-15T04:32:32;98107.00;;;8.00
68012;BMP180;54794;48.348;7.878;2023-04-15T04:34:59;98101.00;;;8.10
68012;BMP180;54794;48.348;7.878;2023-04-15T04:37:26;98110.00;;;8.00
68012;BMP180;54794;48.348;7.878;2023-04-15T04:39:52;98110.00;;;8.10
68012;BMP180;54794;48.348;7.878;2023-04-15T04:42:19;98116.00;;;8.00
68012;BMP180;54794;48.348;7.878;2023-04-15T04:44:46;98117.00;;;8.00
68012;BMP180;54794;48.348;7.878;2023-04-15T04:47:13;98113.00;;;7.80
68012;BMP180;54794;48.348;7.878;2023-04-15T04:49:40;98110.00;;;8.10
68012;BMP180;54794;48.348;7.878;2023-04-15T04:52:08;98110.00;;;8.00
68012;BMP180;54794;48.348;7.878;2023-04-15T04:54:35;98113.00;;;8.10
68012;BMP180;54794;48.348;7.878;2023-04-15T04:57:02;98114.00;;;8.20
68012;BMP180;54794;48.348;7.878;2023-04-15T04:59:29;98114.00;;;8.20
68012;BMP180;54794;48.348;7.878;2023-04-15T05:01:56;98122.00;;;8.40
68012;BMP180;54794;48.348;7.878;2023-04-15T05:04:24;98118.00;;;8.40
68012;BMP180;54794;48.348;7.878;2023-04-15T05:06:52;98125.00;;;8.20
68012;BMP180;54794;48.348;7.878;2023-04-15T05:09:19;98126.00;;;8.20
68012;BMP180;54794;48.348;7.878;2023-04-15T05:11:46;98130.00;;;8.00
68012;BMP180;54794;48.348;7.878;2023-04-15T05:14:12;98128.00;;;8.10
68012;BMP180;54794;48.348;7.878;2023-04-15T05:16:39;98122.00;;;7.90
68012;BMP180;54794;48.348;7.878;2023-04-15T05:19:06;98129.00;;;7.90
68012;BMP180;54794;48.348;7.878;2023-04-15T05:21:33;98125.00;;;7.90
68012;BMP180;54794;48.348;7.878;2023-04-15T05:24:00;98122.00;;;8.10
68012;BMP180;54794;48.348;7.878;2023-04-15T05:26:27;98125.00;;;8.10
68012;BMP180;54794;48.348;7.878;2023-04-15T05:28:54;98112.00;;;8.20
68012;BMP180;54794;48.348;7.878;2023-04-15T05:31:21;98127.00;;;8.10
68012;BMP180;54794;48.348;7.878;2023-04-15T05:33:48;98129.00;;;8.30
68012;BMP180;54794;48.348;7.878;2023-04-15T05:36:15;98125.00;;;8.20
68012;BMP180;54794;48.348;7.878;2023-04-15T05:38:42;98132.00;;;7.90
68012;BMP180;54794;48.348;7.878;2023-04-15T05:41:09;98134.00;;;8.00
68012;BMP180;54794;48.348;7.878;2023-04-15T05:43:35;98133.00;;;8.30
68012;BMP180;54794;48.348;7.878;2023-04-15T05:46:02;98127.00;;;8.20
68012;BMP180;54794;48.348;7.878;2023-04-15T05:48:29;98129.00;;;8.40
68012;BMP180;54794;48.348;7.878;2023-04-15T05:50:57;98137.00;;;8.40
68012;BMP180;54794;48.348;7.878;2023-04-15T05:53:24;98143.00;;;8.50
68012;BMP180;54794;48.348;7.878;2023-04-15T05:55:51;98134.00;;;8.50
68012;BMP180;54794;48.348;7.878;2023-04-15T05:58:18;98127.00;;;8.60
68012;BMP180;54794;48.348;7.878;2023-04-15T06:00:45;98129.00;;;8.70
68012;BMP180;54794;48.348;7.878;2023-04-15T06:03:12;98133.00;;;8.60
68012;BMP180;54794;48.348;7.878;2023-04-15T06:05:39;98135.00;;;8.70
68012;BMP180;54794;48.348;7.878;2023-04-15T06:08:06;98139.00;;;8.80
68012;BMP180;54794;48.348;7.878;2023-04-15T06:10:35;98132.00;;;8.80
68012;BMP180;54794;48.348;7.878;2023-04-15T06:13:03;98135.00;;;8.80
68012;BMP180;54794;48.348;7.878;2023-04-15T06:15:30;98132.00;;;8.70
68012;BMP180;54794;48.348;7.878;2023-04-15T06:17:57;98134.00;;;8.80
68012;BMP180;54794;48.348;7.878;2023-04-15T06:20:24;98130.00;;;8.60
68012;BMP180;54794;48.348;7.878;2023-04-15T06:22:51;98139.00;;;8.40
68012;BMP180;54794;48.348;7.878;2023-04-15T06:25:18;98141.00;;;8.30
68012;BMP180;54794;48.348;7.878;2023-04-15T06:27:45;98143.00;;;8.10
68012;BMP180;54794;48.348;7.878;2023-04-15T06:30:12;98135.00;;;8.50
68012;BMP180;54794;48.348;7.878;2023-04-15T06:32:39;98136.00;;;8.50
68012;BMP180;54794;48.348;7.878;2023-04-15T06:35:06;98137.00;;;8.70
68012;BMP180;54794;48.348;7.878;2023-04-15T06:37:33;98135.00;;;8.80
68012;BMP180;54794;48.348;7.878;2023-04-15T06:40:00;98139.00;;;8.90
68012;BMP180;54794;48.348;7.878;2023-04-15T06:42:27;98136.00;;;9.00
68012;BMP180;54794;48.348;7.878;2023-04-15T06:44:54;98124.00;;;9.10
68012;BMP180;54794;48.348;7.878;2023-04-15T06:47:21;98126.00;;;9.10
68012;BMP180;54794;48.348;7.878;2023-04-15T06:49:48;98142.00;;;9.30
68012;BMP180;54794;48.348;7.878;2023-04-15T06:52:15;98137.00;;;9.50
68012;BMP180;54794;48.348;7.878;2023-04-15T06:54:42;98140.00;;;9.10
68012;BMP180;54794;48.348;7.878;2023-04-15T06:57:09;98144.00;;;9.30
68012;BMP180;54794;48.348;7.878;2023-04-15T06:59:36;98132.00;;;9.40
68012;BMP180;54794;48.348;7.878;2023-04-15T07:02:03;98149.00;;;9.30
68012;BMP180;54794;48.348;7.878;2023-04-15T07:04:30;98135.00;;;9.30
68012;BMP180;54794;48.348;7.878;2023-04-15T07:06:58;98142.00;;;9.60
68012;BMP180;54794;48.348;7.878;2023-04-15T07:09:26;98151.00;;;9.30
68012;BMP180;54794;48.348;7.878;2023-04-15T07:11:53;98153.00;;;9.30
68012;BMP180;54794;48.348;7.878;2023-04-15T07:14:24;98152.00;;;9.50
68012;BMP180;54794;48.348;7.878;2023-04-15T07:16:51;98144.00;;;9.90
68012;BMP180;54794;48.348;7.878;2023-04-15T07:19:18;98141.00;;;10.20
68012;BMP180;54794;48.348;7.878;2023-04-15T07:21:46;98138.00;;;10.30
68012;BMP180;54794;48.348;7.878;2023-04-15T07:24:13;98133.00;;;10.40
68012;BMP180;54794;48.348;7.878;2023-04-15T07:26:43;98137.00;;;10.50
68012;BMP180;54794;48.348;7.878;2023-04-15T07:29:10;98136.00;;;10.60
68012;BMP180;54794;48.348;7.878;2023-04-15T07:31:39;98130.00;;;10.80
68012;BMP180;54794;48.348;7.878;2023-04-15T07:34:06;98131.00;;;10.70
68012;BMP180;54794;48.348;7.878;2023-04-15T07:36:33;98137.00;;;11.00
68012;BMP180;54794;48.348;7.878;2023-04-15T07:39:01;98138.00;;;11.30
68012;BMP180;54794;48.348;7.878;2023-04-15T07:41:30;98142.00;;;11.30
68012;BMP180;54794;48.348;7.878;2023-04-15T07:43:57;98143.00;;;11.30
68012;BMP180;54794;48.348;7.878;2023-04-15T07:46:24;98138.00;;;11.40
68012;BMP180;54794;48.348;7.878;2023-04-15T07:48:53;98134.00;;;11.50
68012;BMP180;54794;48.348;7.878;2023-04-15T07:51:20;98134.00;;;11.90
68012;BMP180;54794;48.348;7.878;2023-04-15T07:53:48;98134.00;;;12.00
68012;BMP180;54794;48.348;7.878;2023-04-15T07:56:16;98137.00;;;12.10
68012;BMP180;54794;48.348;7.878;2023-04-15T07:58:43;98130.00;;;12.00
68012;BMP180;54794;48.348;7.878;2023-04-15T08:01:10;98134.00;;;12.10
68012;BMP180;54794;48.348;7.878;2023-04-15T08:03:37;98142.00;;;11.80
68012;BMP180;54794;48.348;7.878;2023-04-15T08:06:05;98138.00;;;12.00
68012;BMP180;54794;48.348;7.878;2023-04-15T08:08:32;98139.00;;;12.20
68012;BMP180;54794;48.348;7.878;2023-04-15T08:10:59;98137.00;;;12.60
68012;BMP180;54794;48.348;7.878;2023-04-15T08:13:28;98136.00;;;12.80
68012;BMP180;54794;48.348;7.878;2023-04-15T08:18:46;98149.00;;;12.60
68012;BMP180;54794;48.348;7.878;2023-04-15T08:21:13;98150.00;;;12.40
68012;BMP180;54794;48.348;7.878;2023-04-15T08:23:40;98148.00;;;12.80
68012;BMP180;54794;48.348;7.878;2023-04-15T08:26:08;98148.00;;;12.80
68012;BMP180;54794;48.348;7.878;2023-04-15T08:28:40;98154.00;;;12.90
68012;BMP180;54794;48.348;7.878;2023-04-15T08:31:07;98151.00;;;13.00
68012;BMP180;54794;48.348;7.878;2023-04-15T08:33:35;98148.00;;;12.70
68012;BMP180;54794;48.348;7.878;2023-04-15T08:36:03;98156.00;;;12.80
68012;BMP180;54794;48.348;7.878;2023-04-15T08:38:30;98156.00;;;12.90
68012;BMP180;54794;48.348;7.878;2023-04-15T08:41:03;98167.00;;;13.10
68012;BMP180;54794;48.348;7.878;2023-04-15T08:43:34;98157.00;;;13.20
68012;BMP180;54794;48.348;7.878;2023-04-15T08:46:06;98164.00;;;13.40
68012;BMP180;54794;48.348;7.878;2023-04-15T08:48:37;98161.00;;;13.80
68012;BMP180;54794;48.348;7.878;2023-04-15T08:51:06;98165.00;;;13.70
68012;BMP180;54794;48.348;7.878;2023-04-15T08:53:34;98166.00;;;13.80
68012;BMP180;54794;48.348;7.878;2023-04-15T08:56:06;98164.00;;;13.80
68012;BMP180;54794;48.348;7.878;2023-04-15T08:58:35;98171.00;;;13.90
68012;BMP180;54794;48.348;7.878;2023-04-15T09:01:02;98172.00;;;14.10
68012;BMP180;54794;48.348;7.878;2023-04-15T09:03:30;98172.00;;;14.10
68012;BMP180;54794;48.348;7.878;2023-04-15T09:05:58;98176.00;;;13.70
68012;BMP180;54794;48.348;7.878;2023-04-15T09:08:25;98166.00;;;14.00
68012;BMP180;54794;48.348;7.878;2023-04-15T09:10:53;98178.00;;;14.50
68012;BMP180;54794;48.348;7.878;2023-04-15T09:13:20;98172.00;;;14.30
68012;BMP180;54794;48.348;7.878;2023-04-15T09:15:47;98183.00;;;14.00
68012;BMP180;54794;48.348;7.878;2023-04-15T09:18:28;98183.00;;;14.60
68012;BMP180;54794;48.348;7.878;2023-04-15T09:20:55;98191.00;;;14.40
68012;BMP180;54794;48.348;7.878;2023-04-15T09:23:31;98185.00;;;14.40
68012;BMP180;54794;48.348;7.878;2023-04-15T09:26:01;98186.00;;;14.40
68012;BMP180;54794;48.348;7.878;2023-04-15T09:28:28;98197.00;;;14.30
68012;BMP180;54794;48.348;7.878;2023-04-15T09:30:57;98203.00;;;14.30
68012;BMP180;54794;48.348;7.878;2023-04-15T09:33:26;98202.00;;;14.50
68012;BMP180;54794;48.348;7.878;2023-04-15T09:36:03;98199.00;;;15.00
68012;BMP180;54794;48.348;7.878;2023-04-15T09:38:31;98208.00;;;14.70
68012;BMP180;54794;48.348;7.878;2023-04-15T09:40:58;98197.00;;;14.50
68012;BMP180;54794;48.348;7.878;2023-04-15T09:43:43;98202.00;;;14.20
68012;BMP180;54794;48.348;7.878;2023-04-15T09:46:11;98210.00;;;14.40
68012;BMP180;54794;48.348;7.878;2023-04-15T09:48:38;98200.00;;;14.30
68012;BMP180;54794;48.348;7.878;2023-04-15T09:51:05;98206.00;;;14.40
68012;BMP180;54794;48.348;7.878;2023-04-15T09:53:35;98215.00;;;14.40
68012;BMP180;54794;48.348;7.878;2023-04-15T09:56:03;98209.00;;;14.50
68012;BMP180;54794;48.348;7.878;2023-04-15T09:58:33;98216.00;;;14.60
68012;BMP180;54794;48.348;7.878;2023-04-15T10:01:04;98209.00;;;14.90
68012;BMP180;54794;48.348;7.878;2023-04-15T10:03:34;98220.00;;;14.90
68012;BMP180;54794;48.348;7.878;2023-04-15T10:06:04;98224.00;;;14.50
68012;BMP180;54794;48.348;7.878;2023-04-15T10:08:33;98229.00;;;14.80
68012;BMP180;54794;48.348;7.878;2023-04-15T10:11:05;98224.00;;;14.80
68012;BMP180;54794;48.348;7.878;2023-04-15T10:13:32;98223.00;;;15.10
68012;BMP180;54794;48.348;7.878;2023-04-15T10:16:10;98224.00;;;14.60
68012;BMP180;54794;48.348;7.878;2023-04-15T10:18:42;98224.00;;;15.10
68012;BMP180;54794;48.348;7.878;2023-04-15T10:21:10;98214.00;;;15.50
68012;BMP180;54794;48.348;7.878;2023-04-15T10:23:40;98220.00;;;15.20
68012;BMP180;54794;48.348;7.878;2023-04-15T10:26:08;98226.00;;;15.30
68012;BMP180;54794;48.348;7.878;2023-04-15T10:28:38;98237.00;;;15.40
68012;BMP180;54794;48.348;7.878;2023-04-15T10:31:05;98224.00;;;15.60
68012;BMP180;54794;48.348;7.878;2023-04-15T10:33:34;98233.00;;;15.50
68012;BMP180;54794;48.348;7.878;2023-04-15T10:36:02;98236.00;;;16.00
68012;BMP180;54794;48.348;7.878;2023-04-15T10:38:43;98235.00;;;16.60
68012;BMP180;54794;48.348;7.878;2023-04-15T10:43:59;98239.00;;;15.40
68012;BMP180;54794;48.348;7.878;2023-04-15T10:49:16;98240.00;;;15.20
68012;BMP180;54794;48.348;7.878;2023-04-15T10:51:58;98233.00;;;15.50
68012;BMP180;54794;48.348;7.878;2023-04-15T10:57:20;98238.00;;;15.80
68012;BMP180;54794;48.348;7.878;2023-04-15T11:02:52;98248.00;;;15.80
68012;BMP180;54794;48.348;7.878;2023-04-15T11:08:09;98255.00;;;16.00
68012;BMP180;54794;48.348;7.878;2023-04-15T11:13:13;98252.00;;;16.50
68012;BMP180;54794;48.348;7.878;2023-04-15T11:15:45;98253.00;;;16.80
68012;BMP180;54794;48.348;7.878;2023-04-15T11:18:22;98260.00;;;16.70
68012;BMP180;54794;48.348;7.878;2023-04-15T11:20:52;98254.00;;;17.10
68012;BMP180;54794;48.348;7.878;2023-04-15T11:23:28;98266.00;;;16.80
68012;BMP180;54794;48.348;7.878;2023-04-15T11:25:56;98255.00;;;17.00
68012;BMP180;54794;48.348;7.878;2023-04-15T11:28:29;98261.00;;;17.20
68012;BMP180;54794;48.348;7.878;2023-04-15T11:31:05;98258.00;;;17.50
68012;BMP180;54794;48.348;7.878;2023-04-15T11:33:33;98262.00;;;17.30
68012;BMP180;54794;48.348;7.878;2023-04-15T11:36:00;98261.00;;;16.70
68012;BMP180;54794;48.348;7.878;2023-04-15T11:38:27;98267.00;;;17.30
68012;BMP180;54794;48.348;7.878;2023-04-15T11:40:54;98263.00;;;17.40
68012;BMP180;54794;48.348;7.878;2023-04-15T11:43:22;98266.00;;;17.40
68012;BMP180;54794;48.348;7.878;2023-04-15T11:45:59;98266.00;;;17.70
68012;BMP180;54794;48.348;7.878;2023-04-15T11:48:34;98263.00;;;17.90
68012;BMP180;54794;48.348;7.878;2023-04-15T11:51:06;98273.00;;;17.60
68012;BMP180;54794;48.348;7.878;2023-04-15T11:56:09;98273.00;;;17.80
68012;BMP180;54794;48.348;7.878;2023-04-15T11:58:37;98272.00;;;18.20
68012;BMP180;54794;48.348;7.878;2023-04-15T12:01:05;98280.00;;;17.90
68012;BMP180;54794;48.348;7.878;2023-04-15T12:03:44;98274.00;;;17.70
68012;BMP180;54794;48.348;7.878;2023-04-15T12:06:20;98284.00;;;18.20
68012;BMP180;54794;48.348;7.878;2023-04-15T12:09:07;98279.00;;;18.50
68012;BMP180;54794;48.348;7.878;2023-04-15T12:11:46;98285.00;;;18.90
68012;BMP180;54794;48.348;7.878;2023-04-15T12:14:32;98285.00;;;19.30
68012;BMP180;54794;48.348;7.878;2023-04-15T12:17:05;98284.00;;;19.10
68012;BMP180;54794;48.348;7.878;2023-04-15T12:19:39;98289.00;;;18.60
68012;BMP180;54794;48.348;7.878;2023-04-15T12:22:14;98286.00;;;18.60
68012;BMP180;54794;48.348;7.878;2023-04-15T12:24:43;98302.00;;;19.30
68012;BMP180;54794;48.348;7.878;2023-04-15T12:27:15;98298.00;;;19.40
68012;BMP180;54794;48.348;7.878;2023-04-15T12:29:43;98296.00;;;19.70
68012;BMP180;54794;48.348;7.878;2023-04-15T12:32:14;98299.00;;;19.90
68012;BMP180;54794;48.348;7.878;2023-04-15T12:34:49;98297.00;;;19.70
68012;BMP180;54794;48.348;7.878;2023-04-15T12:37:17;98305.00;;;19.80
68012;BMP180;54794;48.348;7.878;2023-04-15T12:39:47;98308.00;;;20.20
68012;BMP180;54794;48.348;7.878;2023-04-15T12:42:17;98314.00;;;20.30
68012;BMP180;54794;48.348;7.878;2023-04-15T12:44:45;98316.00;;;19.80
68012;BMP180;54794;48.348;7.878;2023-04-15T12:47:12;98312.00;;;20.10
68012;BMP180;54794;48.348;7.878;2023-04-15T12:49:40;98319.00;;;19.40
68012;BMP180;54794;48.348;7.878;2023-04-15T12:52:07;98327.00;;;19.10
68012;BMP180;54794;48.348;7.878;2023-04-15T12:54:34;98334.00;;;18.40
68012;BMP180;54794;48.348;7.878;2023-04-15T12:57:02;98330.00;;;18.30
68012;BMP180;54794;48.348;7.878;2023-04-15T12:59:33;98341.00;;;18.80
68012;BMP180;54794;48.348;7.878;2023-04-15T13:02:00;98338.00;;;19.10
68012;BMP180;54794;48.348;7.878;2023-04-15T13:04:29;98345.00;;;18.60
68012;BMP180;54794;48.348;7.878;2023-04-15T13:06:57;98352.00;;;18.30
68012;BMP180;54794;48.348;7.878;2023-04-15T13:09:24;98352.00;;;18.40
68012;BMP180;54794;48.348;7.878;2023-04-15T13:11:51;98357.00;;;19.10
68012;BMP180;54794;48.348;7.878;2023-04-15T13:14:18;98354.00;;;19.00
68012;BMP180;54794;48.348;7.878;2023-04-15T13:16:45;98362.00;;;18.90
68012;BMP180;54794;48.348;7.878;2023-04-15T13:19:12;98366.00;;;18.90
68012;BMP180;54794;48.348;7.878;2023-04-15T13:21:40;98361.00;;;19.20
68012;BMP180;54794;48.348;7.878;2023-04-15T13:24:07;98362.00;;;19.40
68012;BMP180;54794;48.348;7.878;2023-04-15T13:26:35;98371.00;;;19.50
68012;BMP180;54794;48.348;7.878;2023-04-15T13:29:02;98372.00;;;19.40
68012;BMP180;54794;48.348;7.878;2023-04-15T13:31:29;98365.00;;;19.70
68012;BMP180;54794;48.348;7.878;2023-04-15T13:33:56;98374.00;;;19.70
68012;BMP180;54794;48.348;7.878;2023-04-15T13:36:23;98375.00;;;19.50
68012;BMP180;54794;48.348;7.878;2023-04-15T13:38:50;98376.00;;;19.20
68012;BMP180;54794;48.348;7.878;2023-04-15T13:41:17;98385.00;;;19.00
68012;BMP180;54794;48.348;7.878;2023-04-15T13:43:45;98389.00;;;19.00
68012;BMP180;54794;48.348;7.878;2023-04-15T13:46:13;98394.00;;;19.00
68012;BMP180;54794;48.348;7.878;2023-04-15T13:48:40;98390.00;;;19.60
68012;BMP180;54794;48.348;7.878;2023-04-15T13:51:07;98389.00;;;19.50
68012;BMP180;54794;48.348;7.878;2023-04-15T13:53:34;98386.00;;;19.50
68012;BMP180;54794;48.348;7.878;2023-04-15T13:56:06;98400.00;;;19.10
68012;BMP180;54794;48.348;7.878;2023-04-15T13:58:35;98399.00;;;18.80
68012;BMP180;54794;48.348;7.878;2023-04-15T14:01:02;98401.00;;;19.00
68012;BMP180;54794;48.348;7.878;2023-04-15T14:03:33;98403.00;;;19.20
68012;BMP180;54794;48.348;7.878;2023-04-15T14:06:00;98408.00;;;19.30
68012;BMP180;54794;48.348;7.878;2023-04-15T14:08:28;98407.00;;;19.30
68012;BMP180;54794;48.348;7.878;2023-04-15T14:10:55;98409.00;;;19.40
68012;BMP180;54794;48.348;7.878;2023-04-15T14:13:23;98415.00;;;19.70
68012;BMP180;54794;48.348;7.878;2023-04-15T14:15:50;98412.00;;;19.40
68012;BMP180;54794;48.348;7.878;2023-04-15T14:18:17;98420.00;;;19.50
68012;BMP180;54794;48.348;7.878;2023-04-15T14:20:44;98414.00;;;19.10
68012;BMP180;54794;48.348;7.878;2023-04-15T14:23:11;98418.00;;;18.60
68012;BMP180;54794;48.348;7.878;2023-04-15T14:25:38;98421.00;;;18.80
68012;BMP180;54794;48.348;7.878;2023-04-15T14:28:05;98429.00;;;18.50
68012;BMP180;54794;48.348;7.878;2023-04-15T14:30:32;98429.00;;;18.90
68012;BMP180;54794;48.348;7.878;2023-04-15T14:32:59;98429.00;;;18.70
68012;BMP180;54794;48.348;7.878;2023-04-15T14:35:26;98436.00;;;19.00
68012;BMP180;54794;48.348;7.878;2023-04-15T14:37:54;98440.00;;;19.20
68012;BMP180;54794;48.348;7.878;2023-04-15T14:40:21;98448.00;;;19.00
68012;BMP180;54794;48.348;7.878;2023-04-15T14:42:48;98449.00;;;19.60
68012;BMP180;54794;48.348;7.878;2023-04-15T14:45:15;98452.00;;;19.50